sensor_id;sensor_type;location;lat;lon;timestamp;temperature;humidity
6496;DHT22;3281;47.658;9.166;2023-12-20T00:02:04;6.10;1.00
6496;DHT22;3281;47.658;9.166;2023-12-20T00:04:30;6.10;1.00
6496;DHT22;3281;47.658;9.166;2023-12-20T00:06:57;6.10;1.00
6496;DHT22;3281;47.658;9.166;2023-12-20T00:09:24;6.10;1.00
6496;DHT22;3281;47.658;9.166;2023-12-20T00:11:52;6.20;1.00
6496;DHT22;3281;47.658;9.166;2023-12-20T00:14:18;6.20;99.90
6496;DHT22;3281;47.658;9.166;2023-12-20T00:16:45;6.20;99.90
6496;DHT22;3281;47.658;9.166;2023-12-20T00:19:12;6.20;1.00
6496;DHT22;3281;47.658;9.166;2023-12-20T00:21:39;6.20;1.00
6496;DHT22;3281;47.658;9.166;2023-12-20T00:24:05;6.20;1.00
6496;DHT22;3281;47.658;9.166;2023-12-20T00:26:32;6.50;99.90
6496;DHT22;3281;47.658;9.166;2023-12-20T00:29:01;6.30;1.00
6496;DHT22;3281;47.658;9.166;2023-12-20T00:31:28;6.30;99.90
6496;DHT22;3281;47.658;9.166;2023-12-20T00:33:54;6.30;99.90
6496;DHT22;3281;47.658;9.166;2023-12-20T00:36:21;6.30;99.90
6496;DHT22;3281;47.658;9.166;2023-12-20T00:38:48;6.30;99.90
6496;DHT22;3281;47.658;9.166;2023-12-20T00:41:16;6.30;99.90
6496;DHT22;3281;47.658;9.166;2023-12-20T00:43:43;6.40;99.90
6496;DHT22;3281;47.658;9.166;2023-12-20T00:46:11;6.40;99.90
6496;DHT22;3281;47.658;9.166;2023-12-20T00:48:38;6.40;99.90
6496;DHT22;3281;47.658;9.166;2023-12-20T00:51:07;6.40;99.90
6496;DHT22;3281;47.658;9.166;2023-12-20T00:53:34;6.40;99.90
6496;DHT22;3281;47.658;9.166;2023-12-20T00:56:00;6.40;99.90
6496;DHT22;3281;47.658;9.166;2023-12-20T00:58:27;6.40;99.90
6496;DHT22;3281;47.658;9.166;2023-12-20T01:00:53;6.40;99.90
6496;DHT22;3281;47.658;9.166;2023-12-20T01:03:21;6.50;99.90
6496;DHT22;3281;47.658;9.166;2023-12-20T01:05:48;6.50;99.90
6496;DHT22;3281;47.658;9.166;2023-12-20T01:08:15;6.50;99.90
6496;DHT22;3281;47.658;9.166;2023-12-20T01:10:42;6.50;99.90
6496;DHT22;3281;47.658;9.166;2023-12-20T01:13:08;6.60;99.90
6496;DHT22;3281;47.658;9.166;2023-12-20T01:15:34;6.60;99.90
6496;DHT22;3281;47.658;9.166;2023-12-20T01:18:01;6.70;99.90
6496;DHT22;3281;47.658;9.166;2023-12-20T01:20:29;6.60;99.90
6496;DHT22;3281;47.658;9.166;2023-12-20T01:22:56;6.60;99.90
6496;DHT22;3281;47.658;9.166;2023-12-20T01:25:22;6.70;99.90
6496;DHT22;3281;47.658;9.166;2023-12-20T01:27:49;6.70;99.90
6496;DHT22;3281;47.658;9.166;2023-12-20T01:30:16;6.70;99.90
6496;DHT22;3281;47.658;9.166;2023-12-20T01:32:43;6.80;99.90
6496;DHT22;3281;47.658;9.166;2023-12-20T01:35:10;6.80;99.90
6496;DHT22;3281;47.658;9.166;2023-12-20T01:37:39;6.70;99.90
6496;DHT22;3281;47.658;9.166;2023-12-20T01:40:06;6.70;99.90
6496;DHT22;3281;47.658;9.166;2023-12-20T01:42:33;6.70;99.90
6496;DHT22;3281;47.658;9.166;2023-12-20T01:45:00;6.70;99.90
6496;DHT22;3281;47.658;9.166;2023-12-20T01:47:27;6.80;99.90
6496;DHT22;3281;47.658;9.166;2023-12-20T01:49:54;6.80;99.90
6496;DHT22;3281;47.658;9.166;2023-12-20T01:52:22;6.80;99.90
6496;DHT22;3281;47.658;9.166;2023-12-20T01:54:51;6.80;99.90
6496;DHT22;3281;47.658;9.166;2023-12-20T01:57:20;6.90;99.90
6496;DHT22;3281;47.658;9.166;2023-12-20T01:59:47;6.90;99.90
6496;DHT22;3281;47.658;9.166;2023-12-20T02:02:14;6.90;99.90
6496;DHT22;3281;47.658;9.166;2023-12-20T02:04:41;7.00;99.90
6496;DHT22;3281;47.658;9.166;2023-12-20T02:07:09;7.00;99.90
6496;DHT22;3281;47.658;9.166;2023-12-20T02:09:36;6.90;99.90
6496;DHT22;3281;47.658;9.166;2023-12-20T02:12:05;7.00;99.90
6496;DHT22;3281;47.658;9.166;2023-12-20T02:14:32;7.00;99.90
6496;DHT22;3281;47.658;9.166;2023-12-20T02:16:59;7.00;99.90
6496;DHT22;3281;47.658;9.166;2023-12-20T02:19:25;7.10;99.90
6496;DHT22;3281;47.658;9.166;2023-12-20T02:22:07;7.10;99.90
6496;DHT22;3281;47.658;9.166;2023-12-20T02:24:33;7.10;99.90
6496;DHT22;3281;47.658;9.166;2023-12-20T02:27:00;7.10;99.90
6496;DHT22;3281;47.658;9.166;2023-12-20T02:29:27;7.20;99.90
6496;DHT22;3281;47.658;9.166;2023-12-20T02:31:54;7.00;99.90
6496;DHT22;3281;47.658;9.166;2023-12-20T02:34:20;7.00;99.90
6496;DHT22;3281;47.658;9.166;2023-12-20T02:36:47;6.90;99.90
6496;DHT22;3281;47.658;9.166;2023-12-20T02:39:15;7.00;99.90
6496;DHT22;3281;47.658;9.166;2023-12-20T02:41:42;7.00;99.90
6496;DHT22;3281;47.658;9.166;2023-12-20T02:44:09;7.00;99.90
6496;DHT22;3281;47.658;9.166;2023-12-20T02:46:35;7.00;99.90
6496;DHT22;3281;47.658;9.166;2023-12-20T02:49:02;7.00;99.90
6496;DHT22;3281;47.658;9.166;2023-12-20T02:51:29;6.90;99.90
6496;DHT22;3281;47.658;9.166;2023-12-20T02:53:55;6.90;99.90
6496;DHT22;3281;47.658;9.166;2023-12-20T02:56:23;6.80;99.90
6496;DHT22;3281;47.658;9.166;2023-12-20T02:58:50;6.80;99.90
6496;DHT22;3281;47.658;9.166;2023-12-20T03:01:17;6.80;99.90
6496;DHT22;3281;47.658;9.166;2023-12-20T03:03:43;6.80;99.90
6496;DHT22;3281;47.658;9.166;2023-12-20T03:06:10;6.90;99.90
6496;DHT22;3281;47.658;9.166;2023-12-20T03:08:37;6.90;99.90
6496;DHT22;3281;47.658;9.166;2023-12-20T03:11:04;6.90;99.90
6496;DHT22;3281;47.658;9.166;2023-12-20T03:13:32;6.90;99.90
6496;DHT22;3281;47.658;9.166;2023-12-20T03:15:58;6.90;99.90
6496;DHT22;3281;47.658;9.166;2023-12-20T03:18:25;6.90;99.90
6496;DHT22;3281;47.658;9.166;2023-12-20T03:20:53;6.90;99.90
6496;DHT22;3281;47.658;9.166;2023-12-20T03:23:20;6.90;99.90
6496;DHT22;3281;47.658;9.166;2023-12-20T03:25:46;7.00;99.90
6496;DHT22;3281;47.658;9.166;2023-12-20T03:28:14;7.00;1.00
6496;DHT22;3281;47.658;9.166;2023-12-20T03:30:43;6.90;1.00
6496;DHT22;3281;47.658;9.166;2023-12-20T03:33:10;6.80;1.00
6496;DHT22;3281;47.658;9.166;2023-12-20T03:35:36;6.90;1.00
6496;DHT22;3281;47.658;9.166;2023-12-20T03:38:03;6.80;1.00
6496;DHT22;3281;47.658;9.166;2023-12-20T03:40:30;6.70;1.00
6496;DHT22;3281;47.658;9.166;2023-12-20T03:42:57;6.60;1.00
6496;DHT22;3281;47.658;9.166;2023-12-20T03:45:23;6.50;1.00
6496;DHT22;3281;47.658;9.166;2023-12-20T03:47:51;6.50;1.00
6496;DHT22;3281;47.658;9.166;2023-12-20T03:50:20;6.40;1.00
6496;DHT22;3281;47.658;9.166;2023-12-20T03:52:47;6.30;1.00
6496;DHT22;3281;47.658;9.166;2023-12-20T03:55:14;6.30;1.00
6496;DHT22;3281;47.658;9.166;2023-12-20T03:57:41;6.30;1.00
6496;DHT22;3281;47.658;9.166;2023-12-20T04:00:09;6.30;1.00
6496;DHT22;3281;47.658;9.166;2023-12-20T04:02:35;6.10;1.00
6496;DHT22;3281;47.658;9.166;2023-12-20T04:05:04;6.00;1.00
6496;DHT22;3281;47.658;9.166;2023-12-20T04:07:31;6.00;1.00
6496;DHT22;3281;47.658;9.166;2023-12-20T04:09:58;5.90;1.00
6496;DHT22;3281;47.658;9.166;2023-12-20T04:12:24;6.00;1.00
6496;DHT22;3281;47.658;9.166;2023-12-20T04:14:51;5.90;1.00
6496;DHT22;3281;47.658;9.166;2023-12-20T04:17:18;5.90;1.00
6496;DHT22;3281;47.658;9.166;2023-12-20T04:19:45;5.90;1.00
6496;DHT22;3281;47.658;9.166;2023-12-20T04:22:13;5.90;1.00
6496;DHT22;3281;47.658;9.166;2023-12-20T04:24:39;5.90;1.00
6496;DHT22;3281;47.658;9.166;2023-12-20T04:27:07;5.80;1.00
6496;DHT22;3281;47.658;9.166;2023-12-20T04:29:34;5.80;1.00
6496;DHT22;3281;47.658;9.166;2023-12-20T04:32:01;5.80;1.00
6496;DHT22;3281;47.658;9.166;2023-12-20T04:34:27;5.70;1.00
6496;DHT22;3281;47.658;9.166;2023-12-20T04:36:54;5.80;1.00
6496;DHT22;3281;47.658;9.166;2023-12-20T04:39:22;5.80;1.00
6496;DHT22;3281;47.658;9.166;2023-12-20T04:41:49;5.80;1.00
6496;DHT22;3281;47.658;9.166;2023-12-20T04:44:16;5.80;1.00
6496;DHT22;3281;47.658;9.166;2023-12-20T04:46:42;5.80;1.00
6496;DHT22;3281;47.658;9.166;2023-12-20T04:49:09;5.70;1.00
6496;DHT22;3281;47.658;9.166;2023-12-20T04:51:36;5.70;1.00
6496;DHT22;3281;47.658;9.166;2023-12-20T04:54:03;5.70;1.00
6496;DHT22;3281;47.658;9.166;2023-12-20T04:56:31;5.70;1.00
6496;DHT22;3281;47.658;9.166;2023-12-20T04:58:58;5.70;1.00
6496;DHT22;3281;47.658;9.166;2023-12-20T05:01:25;5.70;1.00
6496;DHT22;3281;47.658;9.166;2023-12-20T05:03:51;5.70;1.00
6496;DHT22;3281;47.658;9.166;2023-12-20T05:06:18;5.70;1.00
6496;DHT22;3281;47.658;9.166;2023-12-20T05:08:45;5.70;1.00
6496;DHT22;3281;47.658;9.166;2023-12-20T05:11:11;5.70;1.00
6496;DHT22;3281;47.658;9.166;2023-12-20T05:13:41;5.70;1.00
6496;DHT22;3281;47.658;9.166;2023-12-20T05:16:07;5.70;1.00
6496;DHT22;3281;47.658;9.166;2023-12-20T05:18:35;5.90;1.00
6496;DHT22;3281;47.658;9.166;2023-12-20T05:21:02;5.80;1.00
6496;DHT22;3281;47.658;9.166;2023-12-20T05:23:29;5.80;1.00
6496;DHT22;3281;47.658;9.166;2023-12-20T05:25:55;5.80;1.00
6496;DHT22;3281;47.658;9.166;2023-12-20T05:28:22;5.80;1.00
6496;DHT22;3281;47.658;9.166;2023-12-20T05:30:50;5.90;1.00
6496;DHT22;3281;47.658;9.166;2023-12-20T05:33:17;5.80;1.00
6496;DHT22;3281;47.658;9.166;2023-12-20T05:35:43;5.80;1.00
6496;DHT22;3281;47.658;9.166;2023-12-20T05:38:10;5.80;1.00
6496;DHT22;3281;47.658;9.166;2023-12-20T05:40:37;5.80;1.00
6496;DHT22;3281;47.658;9.166;2023-12-20T05:43:04;5.80;1.00
6496;DHT22;3281;47.658;9.166;2023-12-20T05:45:30;5.90;1.00
6496;DHT22;3281;47.658;9.166;2023-12-20T05:47:58;5.90;1.00
6496;DHT22;3281;47.658;9.166;2023-12-20T05:50:25;5.80;1.00
6496;DHT22;3281;47.658;9.166;2023-12-20T05:52:52;5.80;1.00
6496;DHT22;3281;47.658;9.166;2023-12-20T05:55:19;5.90;1.00
6496;DHT22;3281;47.658;9.166;2023-12-20T05:57:45;5.90;1.00
6496;DHT22;3281;47.658;9.166;2023-12-20T06:00:13;5.90;1.00
6496;DHT22;3281;47.658;9.166;2023-12-20T06:02:41;5.90;1.00
6496;DHT22;3281;47.658;9.166;2023-12-20T06:05:09;5.90;1.00
6496;DHT22;3281;47.658;9.166;2023-12-20T06:07:36;6.10;1.00
6496;DHT22;3281;47.658;9.166;2023-12-20T06:10:03;6.00;1.00
6496;DHT22;3281;47.658;9.166;2023-12-20T06:12:31;6.00;1.00
6496;DHT22;3281;47.658;9.166;2023-12-20T06:15:01;6.00;1.00
6496;DHT22;3281;47.658;9.166;2023-12-20T06:17:28;6.00;1.00
6496;DHT22;3281;47.658;9.166;2023-12-20T06:19:56;6.10;1.00
6496;DHT22;3281;47.658;9.166;2023-12-20T06:22:24;6.10;1.00
6496;DHT22;3281;47.658;9.166;2023-12-20T06:24:50;6.20;1.00
6496;DHT22;3281;47.658;9.166;2023-12-20T06:27:17;6.20;1.00
6496;DHT22;3281;47.658;9.166;2023-12-20T06:29:44;6.20;1.00
6496;DHT22;3281;47.658;9.166;2023-12-20T06:32:10;6.20;1.00
6496;DHT22;3281;47.658;9.166;2023-12-20T06:34:37;6.20;1.00
6496;DHT22;3281;47.658;9.166;2023-12-20T06:37:04;6.20;1.00
6496;DHT22;3281;47.658;9.166;2023-12-20T06:39:32;6.20;1.00
6496;DHT22;3281;47.658;9.166;2023-12-20T06:41:59;6.20;1.00
6496;DHT22;3281;47.658;9.166;2023-12-20T06:44:26;6.30;1.00
6496;DHT22;3281;47.658;9.166;2023-12-20T06:46:52;6.40;1.00
6496;DHT22;3281;47.658;9.166;2023-12-20T06:49:19;6.40;1.00
6496;DHT22;3281;47.658;9.166;2023-12-20T06:51:46;6.40;1.00
6496;DHT22;3281;47.658;9.166;2023-12-20T06:54:12;6.40;1.00
6496;DHT22;3281;47.658;9.166;2023-12-20T06:56:41;6.40;1.00
6496;DHT22;3281;47.658;9.166;2023-12-20T06:59:07;6.40;1.00
6496;DHT22;3281;47.658;9.166;2023-12-20T07:01:34;6.40;1.00
6496;DHT22;3281;47.658;9.166;2023-12-20T07:04:00;6.40;1.00
6496;DHT22;3281;47.658;9.166;2023-12-20T07:06:27;6.50;1.00
6496;DHT22;3281;47.658;9.166;2023-12-20T07:08:54;6.50;1.00
6496;DHT22;3281;47.658;9.166;2023-12-20T07:11:21;6.40;1.00
6496;DHT22;3281;47.658;9.166;2023-12-20T07:13:49;6.40;1.00
6496;DHT22;3281;47.658;9.166;2023-12-20T07:16:16;6.40;1.00
6496;DHT22;3281;47.658;9.166;2023-12-20T07:18:42;6.40;1.00
6496;DHT22;3281;47.658;9.166;2023-12-20T07:21:09;6.40;1.00
6496;DHT22;3281;47.658;9.166;2023-12-20T07:23:36;6.30;1.00
6496;DHT22;3281;47.658;9.166;2023-12-20T07:26:02;6.50;1.00
6496;DHT22;3281;47.658;9.166;2023-12-20T07:28:29;6.40;1.00
6496;DHT22;3281;47.658;9.166;2023-12-20T07:30:58;6.40;1.00
6496;DHT22;3281;47.658;9.166;2023-12-20T07:33:24;6.50;1.00
6496;DHT22;3281;47.658;9.166;2023-12-20T07:35:51;6.50;1.00
6496;DHT22;3281;47.658;9.166;2023-12-20T07:38:18;6.50;1.00
6496;DHT22;3281;47.658;9.166;2023-12-20T07:40:44;6.50;1.00
6496;DHT22;3281;47.658;9.166;2023-12-20T07:43:11;6.40;1.00
6496;DHT22;3281;47.658;9.166;2023-12-20T07:45:38;6.40;1.00
6496;DHT22;3281;47.658;9.166;2023-12-20T07:48:07;6.50;1.00
6496;DHT22;3281;47.658;9.166;2023-12-20T07:50:34;6.50;1.00
6496;DHT22;3281;47.658;9.166;2023-12-20T07:53:01;6.60;1.00
6496;DHT22;3281;47.658;9.166;2023-12-20T07:55:28;6.60;1.00
6496;DHT22;3281;47.658;9.166;2023-12-20T07:57:55;6.70;1.00
6496;DHT22;3281;47.658;9.166;2023-12-20T08:00:22;6.60;1.00
6496;DHT22;3281;47.658;9.166;2023-12-20T08:02:49;6.70;1.00
6496;DHT22;3281;47.658;9.166;2023-12-20T08:05:17;6.70;1.00
6496;DHT22;3281;47.658;9.166;2023-12-20T08:07:43;6.70;1.00
6496;DHT22;3281;47.658;9.166;2023-12-20T08:10:10;6.70;1.00
6496;DHT22;3281;47.658;9.166;2023-12-20T08:12:38;6.70;1.00
6496;DHT22;3281;47.658;9.166;2023-12-20T08:15:06;6.70;1.00
6496;DHT22;3281;47.658;9.166;2023-12-20T08:17:32;6.70;1.00
6496;DHT22;3281;47.658;9.166;2023-12-20T08:19:59;6.70;1.00
6496;DHT22;3281;47.658;9.166;2023-12-20T08:22:27;6.70;1.00
6496;DHT22;3281;47.658;9.166;2023-12-20T08:24:54;6.80;1.00
6496;DHT22;3281;47.658;9.166;2023-12-20T08:27:21;6.80;1.00
6496;DHT22;3281;47.658;9.166;2023-12-20T08:29:47;6.80;1.00
6496;DHT22;3281;47.658;9.166;2023-12-20T08:32:15;6.80;1.00
6496;DHT22;3281;47.658;9.166;2023-12-20T08:34:42;6.80;1.00
6496;DHT22;3281;47.658;9.166;2023-12-20T08:37:08;6.90;1.00
6496;DHT22;3281;47.658;9.166;2023-12-20T08:39:36;6.90;1.00
6496;DHT22;3281;47.658;9.166;2023-12-20T08:42:04;7.00;1.00
6496;DHT22;3281;47.658;9.166;2023-12-20T08:44:30;7.20;1.00
6496;DHT22;3281;47.658;9.166;2023-12-20T08:46:57;7.10;1.00
6496;DHT22;3281;47.658;9.166;2023-12-20T08:49:24;7.10;1.00
6496;DHT22;3281;47.658;9.166;2023-12-20T08:51:51;7.20;1.00
6496;DHT22;3281;47.658;9.166;2023-12-20T08:54:17;7.30;1.00
6496;DHT22;3281;47.658;9.166;2023-12-20T08:56:46;7.30;1.00
6496;DHT22;3281;47.658;9.166;2023-12-20T08:59:13;7.30;1.00
6496;DHT22;3281;47.658;9.166;2023-12-20T09:01:39;7.30;1.00
6496;DHT22;3281;47.658;9.166;2023-12-20T09:04:06;7.40;1.00
6496;DHT22;3281;47.658;9.166;2023-12-20T09:06:33;7.50;1.00
6496;DHT22;3281;47.658;9.166;2023-12-20T09:08:59;7.50;1.00
6496;DHT22;3281;47.658;9.166;2023-12-20T09:11:26;7.50;1.00
6496;DHT22;3281;47.658;9.166;2023-12-20T09:13:54;7.40;1.00
6496;DHT22;3281;47.658;9.166;2023-12-20T09:16:21;7.40;1.00
6496;DHT22;3281;47.658;9.166;2023-12-20T09:18:47;7.40;1.00
6496;DHT22;3281;47.658;9.166;2023-12-20T09:21:14;7.30;1.00
6496;DHT22;3281;47.658;9.166;2023-12-20T09:23:41;7.40;1.00
6496;DHT22;3281;47.658;9.166;2023-12-20T09:26:08;7.50;1.00
6496;DHT22;3281;47.658;9.166;2023-12-20T09:28:34;7.50;1.00
6496;DHT22;3281;47.658;9.166;2023-12-20T09:31:04;7.50;1.00
6496;DHT22;3281;47.658;9.166;2023-12-20T09:33:32;7.50;1.00
6496;DHT22;3281;47.658;9.166;2023-12-20T09:35:58;7.70;1.00
6496;DHT22;3281;47.658;9.166;2023-12-20T09:38:25;7.70;1.00
6496;DHT22;3281;47.658;9.166;2023-12-20T09:40:52;7.80;1.00
6496;DHT22;3281;47.658;9.166;2023-12-20T09:43:20;7.90;1.00
6496;DHT22;3281;47.658;9.166;2023-12-20T09:45:53;7.90;1.00
6496;DHT22;3281;47.658;9.166;2023-12-20T09:48:21;7.90;1.00
6496;DHT22;3281;47.658;9.166;2023-12-20T09:50:48;7.90;1.00
6496;DHT22;3281;47.658;9.166;2023-12-20T09:53:16;7.80;1.00
6496;DHT22;3281;47.658;9.166;2023-12-20T09:55:44;7.80;1.00
6496;DHT22;3281;47.658;9.166;2023-12-20T09:58:11;7.80;1.00
6496;DHT22;3281;47.658;9.166;2023-12-20T10:00:38;7.80;1.00
6496;DHT22;3281;47.658;9.166;2023-12-20T10:03:06;7.80;1.00
6496;DHT22;3281;47.658;9.166;2023-12-20T10:05:34;7.80;1.00
6496;DHT22;3281;47.658;9.166;2023-12-20T10:08:01;7.80;1.00
6496;DHT22;3281;47.658;9.166;2023-12-20T10:10:28;7.70;1.00
6496;DHT22;3281;47.658;9.166;2023-12-20T10:13:02;7.70;1.00
6496;DHT22;3281;47.658;9.166;2023-12-20T10:15:29;7.70;1.00
6496;DHT22;3281;47.658;9.166;2023-12-20T10:17:56;7.70;1.00
6496;DHT22;3281;47.658;9.166;2023-12-20T10:20:23;7.70;1.00
6496;DHT22;3281;47.658;9.166;2023-12-20T10:22:52;7.80;1.00
6496;DHT22;3281;47.658;9.166;2023-12-20T10:25:19;8.00;1.00
6496;DHT22;3281;47.658;9.166;2023-12-20T10:27:46;8.10;1.00
6496;DHT22;3281;47.658;9.166;2023-12-20T10:30:14;8.70;1.00
6496;DHT22;3281;47.658;9.166;2023-12-20T10:32:40;9.50;1.00
6496;DHT22;3281;47.658;9.166;2023-12-20T10:35:08;10.10;1.00
6496;DHT22;3281;47.658;9.166;2023-12-20T10:37:35;10.10;1.00
6496;DHT22;3281;47.658;9.166;2023-12-20T10:40:05;10.60;1.00
6496;DHT22;3281;47.658;9.166;2023-12-20T10:42:32;10.20;1.00
6496;DHT22;3281;47.658;9.166;2023-12-20T10:45:00;10.50;1.00
6496;DHT22;3281;47.658;9.166;2023-12-20T10:47:28;10.90;1.00
6496;DHT22;3281;47.658;9.166;2023-12-20T10:49:59;11.10;1.00
6496;DHT22;3281;47.658;9.166;2023-12-20T10:52:28;11.30;1.00
6496;DHT22;3281;47.658;9.166;2023-12-20T10:54:55;11.40;1.00
6496;DHT22;3281;47.658;9.166;2023-12-20T10:57:26;11.40;1.00
6496;DHT22;3281;47.658;9.166;2023-12-20T10:59:54;10.90;1.00
6496;DHT22;3281;47.658;9.166;2023-12-20T11:02:22;10.60;1.00
6496;DHT22;3281;47.658;9.166;2023-12-20T11:04:55;10.40;1.00
6496;DHT22;3281;47.658;9.166;2023-12-20T11:07:29;9.90;1.00
6496;DHT22;3281;47.658;9.166;2023-12-20T11:10:00;9.70;1.00
6496;DHT22;3281;47.658;9.166;2023-12-20T11:12:38;9.40;1.00
6496;DHT22;3281;47.658;9.166;2023-12-20T11:15:08;9.60;1.00
6496;DHT22;3281;47.658;9.166;2023-12-20T11:17:34;9.40;1.00
6496;DHT22;3281;47.658;9.166;2023-12-20T11:20:08;9.30;1.00
6496;DHT22;3281;47.658;9.166;2023-12-20T11:22:37;9.30;1.00
6496;DHT22;3281;47.658;9.166;2023-12-20T11:25:08;9.30;1.00
6496;DHT22;3281;47.658;9.166;2023-12-20T11:27:39;9.20;1.00
6496;DHT22;3281;47.658;9.166;2023-12-20T11:30:08;9.20;1.00
6496;DHT22;3281;47.658;9.166;2023-12-20T11:32:36;9.40;1.00
6496;DHT22;3281;47.658;9.166;2023-12-20T11:35:17;9.60;1.00
6496;DHT22;3281;47.658;9.166;2023-12-20T11:37:45;9.90;1.00
6496;DHT22;3281;47.658;9.166;2023-12-20T11:40:14;9.80;1.00
6496;DHT22;3281;47.658;9.166;2023-12-20T11:42:44;9.60;1.00
6496;DHT22;3281;47.658;9.166;2023-12-20T11:45:13;9.80;1.00
6496;DHT22;3281;47.658;9.166;2023-12-20T11:47:40;9.90;1.00
6496;DHT22;3281;47.658;9.166;2023-12-20T11:50:08;9.70;1.00
6496;DHT22;3281;47.658;9.166;2023-12-20T11:52:35;9.50;1.00
6496;DHT22;3281;47.658;9.166;2023-12-20T11:55:02;9.20;1.00
6496;DHT22;3281;47.658;9.166;2023-12-20T11:57:29;9.00;1.00
6496;DHT22;3281;47.658;9.166;2023-12-20T11:59:58;9.00;1.00
6496;DHT22;3281;47.658;9.166;2023-12-20T12:02:24;8.90;1.00
6496;DHT22;3281;47.658;9.166;2023-12-20T12:04:51;8.90;1.00
6496;DHT22;3281;47.658;9.166;2023-12-20T12:07:18;9.10;1.00
6496;DHT22;3281;47.658;9.166;2023-12-20T12:09:45;9.30;1.00
6496;DHT22;3281;47.658;9.166;2023-12-20T12:12:13;9.40;1.00
6496;DHT22;3281;47.658;9.166;2023-12-20T12:14:39;9.70;1.00
6496;DHT22;3281;47.658;9.166;2023-12-20T12:17:11;9.70;1.00
6496;DHT22;3281;47.658;9.166;2023-12-20T12:19:38;9.50;1.00
6496;DHT22;3281;47.658;9.166;2023-12-20T12:22:05;9.30;1.00
6496;DHT22;3281;47.658;9.166;2023-12-20T12:24:34;9.40;1.00
6496;DHT22;3281;47.658;9.166;2023-12-20T12:27:00;9.70;1.00
6496;DHT22;3281;47.658;9.166;2023-12-20T12:29:27;10.10;1.00
6496;DHT22;3281;47.658;9.166;2023-12-20T12:31:54;10.00;1.00
6496;DHT22;3281;47.658;9.166;2023-12-20T12:34:22;9.90;1.00
6496;DHT22;3281;47.658;9.166;2023-12-20T12:36:49;9.60;1.00
6496;DHT22;3281;47.658;9.166;2023-12-20T12:39:18;9.40;1.00
6496;DHT22;3281;47.658;9.166;2023-12-20T12:41:44;9.30;1.00
6496;DHT22;3281;47.658;9.166;2023-12-20T12:44:11;9.20;1.00
6496;DHT22;3281;47.658;9.166;2023-12-20T12:46:38;8.80;1.00
6496;DHT22;3281;47.658;9.166;2023-12-20T12:49:05;8.60;1.00
6496;DHT22;3281;47.658;9.166;2023-12-20T12:51:33;8.60;1.00
6496;DHT22;3281;47.658;9.166;2023-12-20T12:53:59;9.10;1.00
6496;DHT22;3281;47.658;9.166;2023-12-20T12:56:26;10.30;1.00
6496;DHT22;3281;47.658;9.166;2023-12-20T12:58:53;11.20;1.00
6496;DHT22;3281;47.658;9.166;2023-12-20T13:01:20;11.60;1.00
6496;DHT22;3281;47.658;9.166;2023-12-20T13:03:47;10.80;1.00
6496;DHT22;3281;47.658;9.166;2023-12-20T13:06:14;10.80;1.00
6496;DHT22;3281;47.658;9.166;2023-12-20T13:08:42;10.80;1.00
6496;DHT22;3281;47.658;9.166;2023-12-20T13:11:09;10.30;1.00
6496;DHT22;3281;47.658;9.166;2023-12-20T13:13:36;10.30;1.00
6496;DHT22;3281;47.658;9.166;2023-12-20T13:16:03;10.10;1.00
6496;DHT22;3281;47.658;9.166;2023-12-20T13:18:30;10.50;1.00
6496;DHT22;3281;47.658;9.166;2023-12-20T13:20:57;10.90;1.00
6496;DHT22;3281;47.658;9.166;2023-12-20T13:23:24;10.50;1.00
6496;DHT22;3281;47.658;9.166;2023-12-20T13:25:52;10.00;1.00
6496;DHT22;3281;47.658;9.166;2023-12-20T13:28:18;9.50;1.00
6496;DHT22;3281;47.658;9.166;2023-12-20T13:30:45;9.10;1.00
6496;DHT22;3281;47.658;9.166;2023-12-20T13:33:12;8.90;1.00
6496;DHT22;3281;47.658;9.166;2023-12-20T13:35:38;8.90;1.00
6496;DHT22;3281;47.658;9.166;2023-12-20T13:38:05;8.90;1.00
6496;DHT22;3281;47.658;9.166;2023-12-20T13:40:33;8.90;1.00
6496;DHT22;3281;47.658;9.166;2023-12-20T13:43:01;8.90;1.00
6496;DHT22;3281;47.658;9.166;2023-12-20T13:45:28;8.90;1.00
6496;DHT22;3281;47.658;9.166;2023-12-20T13:47:55;9.00;1.00
6496;DHT22;3281;47.658;9.166;2023-12-20T13:50:22;8.90;1.00
6496;DHT22;3281;47.658;9.166;2023-12-20T13:52:48;8.90;1.00
6496;DHT22;3281;47.658;9.166;2023-12-20T13:55:15;8.90;1.00
6496;DHT22;3281;47.658;9.166;2023-12-20T13:57:42;8.90;1.00
6496;DHT22;3281;47.658;9.166;2023-12-20T14:00:11;8.80;1.00
6496;DHT22;3281;47.658;9.166;2023-12-20T14:02:41;8.70;1.00
6496;DHT22;3281;47.658;9.166;2023-12-20T14:05:08;8.60;1.00
6496;DHT22;3281;47.658;9.166;2023-12-20T14:07:35;8.60;1.00
6496;DHT22;3281;47.658;9.166;2023-12-20T14:10:02;8.50;1.00
6496;DHT22;3281;47.658;9.166;2023-12-20T14:12:29;8.50;1.00
6496;DHT22;3281;47.658;9.166;2023-12-20T14:14:57;8.50;1.00
6496;DHT22;3281;47.658;9.166;2023-12-20T14:17:25;8.50;1.00
6496;DHT22;3281;47.658;9.166;2023-12-20T14:19:52;8.40;1.00
6496;DHT22;3281;47.658;9.166;2023-12-20T14:22:20;8.40;1.00
6496;DHT22;3281;47.658;9.166;2023-12-20T14:24:46;8.30;1.00
6496;DHT22;3281;47.658;9.166;2023-12-20T14:27:14;8.10;1.00
6496;DHT22;3281;47.658;9.166;2023-12-20T14:29:40;8.10;1.00
6496;DHT22;3281;47.658;9.166;2023-12-20T14:32:07;8.10;1.00
6496;DHT22;3281;47.658;9.166;2023-12-20T14:34:35;8.00;1.00
6496;DHT22;3281;47.658;9.166;2023-12-20T14:37:03;8.00;1.00
6496;DHT22;3281;47.658;9.166;2023-12-20T14:39:31;7.90;1.00
6496;DHT22;3281;47.658;9.166;2023-12-20T14:41:57;8.00;1.00
6496;DHT22;3281;47.658;9.166;2023-12-20T14:44:24;7.90;1.00
6496;DHT22;3281;47.658;9.166;2023-12-20T14:46:51;7.70;1.00
6496;DHT22;3281;47.658;9.166;2023-12-20T14:49:18;7.70;1.00
6496;DHT22;3281;47.658;9.166;2023-12-20T14:51:46;7.70;1.00
6496;DHT22;3281;47.658;9.166;2023-12-20T14:54:13;7.60;1.00
6496;DHT22;3281;47.658;9.166;2023-12-20T14:56:40;7.60;1.00
6496;DHT22;3281;47.658;9.166;2023-12-20T14:59:07;7.60;1.00
6496;DHT22;3281;47.658;9.166;2023-12-20T15:01:33;7.60;1.00
6496;DHT22;3281;47.658;9.166;2023-12-20T15:04:01;7.60;1.00
6496;DHT22;3281;47.658;9.166;2023-12-20T15:06:29;7.80;1.00
6496;DHT22;3281;47.658;9.166;2023-12-20T15:08:58;7.90;1.00
6496;DHT22;3281;47.658;9.166;2023-12-20T15:11:25;8.00;1.00
6496;DHT22;3281;47.658;9.166;2023-12-20T15:13:52;8.10;1.00
6496;DHT22;3281;47.658;9.166;2023-12-20T15:16:21;8.00;1.00
6496;DHT22;3281;47.658;9.166;2023-12-20T15:18:48;8.00;1.00
6496;DHT22;3281;47.658;9.166;2023-12-20T15:21:15;7.90;1.00
6496;DHT22;3281;47.658;9.166;2023-12-20T15:23:42;7.90;1.00
6496;DHT22;3281;47.658;9.166;2023-12-20T15:26:19;7.80;1.00
6496;DHT22;3281;47.658;9.166;2023-12-20T15:28:46;7.60;1.00
6496;DHT22;3281;47.658;9.166;2023-12-20T15:31:13;7.50;1.00
6496;DHT22;3281;47.658;9.166;2023-12-20T15:33:40;7.40;1.00
6496;DHT22;3281;47.658;9.166;2023-12-20T15:36:07;7.30;1.00
6496;DHT22;3281;47.658;9.166;2023-12-20T15:38:34;7.10;1.00
6496;DHT22;3281;47.658;9.166;2023-12-20T15:41:01;7.00;1.00
6496;DHT22;3281;47.658;9.166;2023-12-20T15:43:29;6.90;1.00
6496;DHT22;3281;47.658;9.166;2023-12-20T15:45:56;6.90;1.00
6496;DHT22;3281;47.658;9.166;2023-12-20T15:48:23;6.80;1.00
6496;DHT22;3281;47.658;9.166;2023-12-20T15:50:54;6.80;1.00
6496;DHT22;3281;47.658;9.166;2023-12-20T15:53:21;6.80;1.00
6496;DHT22;3281;47.658;9.166;2023-12-20T15:55:48;6.70;1.00
6496;DHT22;3281;47.658;9.166;2023-12-20T15:58:13;6.60;1.00
6496;DHT22;3281;47.658;9.166;2023-12-20T16:00:41;6.60;1.00
6496;DHT22;3281;47.658;9.166;2023-12-20T16:03:08;6.50;1.00
6496;DHT22;3281;47.658;9.166;2023-12-20T16:05:35;6.40;1.00
6496;DHT22;3281;47.658;9.166;2023-12-20T16:08:01;6.40;1.00
6496;DHT22;3281;47.658;9.166;2023-12-20T16:10:28;6.30;1.00
6496;DHT22;3281;47.658;9.166;2023-12-20T16:12:55;6.30;1.00
6496;DHT22;3281;47.658;9.166;2023-12-20T16:15:22;6.30;1.00
6496;DHT22;3281;47.658;9.166;2023-12-20T16:17:50;6.20;1.00
6496;DHT22;3281;47.658;9.166;2023-12-20T16:20:17;6.10;1.00
6496;DHT22;3281;47.658;9.166;2023-12-20T16:22:44;6.10;1.00
6496;DHT22;3281;47.658;9.166;2023-12-20T16:25:10;6.00;1.00
6496;DHT22;3281;47.658;9.166;2023-12-20T16:27:37;6.00;1.00
6496;DHT22;3281;47.658;9.166;2023-12-20T16:30:05;5.90;1.00